createdAt,value
2022-09-05T00:15:14.641Z,2282.25857
2022-09-05T00:31:45.630Z,2235.38755
2022-09-05T00:46:54.676Z,2195.50089
2022-09-05T01:01:57.089Z,2170.2459
2022-09-05T01:16:59.530Z,2110.3659
2022-09-05T01:32:01.842Z,2129.42112
2022-09-05T01:47:04.219Z,2195.50089
2022-09-05T02:02:08.926Z,2348.54823
2022-09-05T02:17:27.323Z,2454.46712
2022-09-05T02:32:51.640Z,2551.84903
2022-09-05T02:47:54.191Z,2582.1173
2022-09-05T03:02:56.465Z,2556.45941
2022-09-05T03:18:19.936Z,2508.86576
2022-09-05T03:33:23.544Z,2556.45941
2022-09-05T03:48:53.918Z,2495.59134
2022-09-05T04:08:13.520Z,2431.27199
2022-09-05T04:23:35.022Z,2282.25857
2022-09-05T04:38:37.252Z,1934.38191
2022-09-05T04:53:39.410Z,1858.17515
2022-09-05T05:08:41.761Z,1761.04592
2022-09-05T05:23:44.037Z,1624.56995
2022-09-05T05:38:46.392Z,1526.42983
2022-09-05T05:53:51.767Z,1549.8362
2022-09-05T06:12:40.105Z,1415.00051
2022-09-05T06:30:05.751Z,1311.39995
2022-09-05T06:45:27.867Z,1293.41916
2022-09-05T07:00:31.200Z,1204.25582
2022-09-05T07:15:33.491Z,1150.40701
2022-09-05T07:30:35.841Z,1156.04626
2022-09-05T07:45:38.129Z,1094.35472
2022-09-05T08:00:44.939Z,1065.51255
2022-09-05T08:16:13.301Z,1059.13224
2022-09-05T08:31:16.442Z,1115.9311
2022-09-05T08:46:46.800Z,1147.60797
2022-09-05T09:02:37.408Z,1163.65182
2022-09-05T09:17:50.548Z,1144.82251
2022-09-05T09:32:56.318Z,1163.65182
2022-09-05T09:48:01.078Z,1137.46031
2022-09-05T10:06:20.099Z,1133.81461
2022-09-05T10:26:01.809Z,1109.80442
2022-09-05T10:41:20.059Z,1130.1922
2022-09-05T10:56:26.093Z,1112.42189
2022-09-05T11:11:35.226Z,1142.97304
2022-09-05T11:26:37.652Z,1089.29996
2022-09-05T11:41:39.981Z,1075.22847
2022-09-05T11:56:45.889Z,1050.48305
2022-09-05T12:11:48.433Z,1040.44168
2022-09-05T12:27:38.513Z,1021.66115
2022-09-05T12:42:54.784Z,985.37654
2022-09-05T13:02:57.934Z,1000.0005
2022-09-05T13:18:13.116Z,940.82497
2022-09-05T13:38:05.336Z,904.15385
2022-09-05T13:53:28.945Z,869.16512
2022-09-05T14:08:38.276Z,836.28891
2022-09-05T14:23:40.635Z,819.8151
2022-09-05T14:38:43.020Z,796.28637
2022-09-05T14:54:01.420Z,845.78651
2022-09-05T15:11:24.047Z,945.85611
2022-09-05T15:27:22.143Z,985.37654
2022-09-05T15:42:24.632Z,1009.27297
2022-09-05T15:57:27.226Z,1053.61182
2022-09-05T16:12:30.137Z,1110.67554
2022-09-05T16:27:32.934Z,1139.29197
2022-09-05T16:42:46.402Z,1136.54669
2022-09-05T16:57:50.023Z,1235.80837
2022-09-05T17:12:53.676Z,1219.82809
2022-09-05T17:29:24.241Z,1270.19799
2022-09-05T17:44:40.082Z,1398.22186
2022-09-05T17:59:44.630Z,1534.70765
2022-09-05T18:14:50.112Z,1547.2941
2022-09-05T18:29:57.975Z,1804.84743
2022-09-05T18:45:01.816Z,2107.22314
2022-09-05T19:00:04.225Z,2238.92456
2022-09-05T19:15:06.886Z,2364.24445
2022-09-05T19:36:44.679Z,2565.73034
2022-09-05T19:52:21.217Z,2515.55607
2022-09-05T20:07:23.564Z,2734.30004
2022-09-05T20:22:48.606Z,2777.2331
2022-09-05T20:43:19.663Z,2873.09697
2022-09-05T20:58:37.186Z,3066.08933
2022-09-05T21:13:51.978Z,3084.46915
2022-09-05T21:28:55.521Z,3281.15991
2022-09-05T21:47:33.879Z,3498.14635
2022-09-05T22:02:48.317Z,3566.47812
2022-09-05T22:17:50.771Z,3785.95367
2022-09-05T22:32:52.997Z,3811.44831
2022-09-05T22:47:55.199Z,4167.89447
2022-09-05T23:02:57.697Z,4134.40518
2022-09-05T23:17:59.910Z,4217.5862
2022-09-05T23:33:02.076Z,4477.84861
2022-09-05T23:48:04.237Z,4609.12104
